03:50
Airports
Links
Donate
Help keep this website running!
PayPal
Bitcoin
METAR
PHNL 250253Z 06011KT 10SM FEW020 SCT029 BKN070 28/20 A3011 RMK AO2 SLP196 60000 T02780200 55001
Current Weather Conditions at PHNL
VFR 02:53:00 25-03-17
Automated station
Altimeter:30.11 hg
Temp:27.8°c 81°f
Dew point:20.0°c 68°f
Wind:11 knots, 12.7 mph, 6 m/s, from 60°
Visibility:10.0 statute miles
7000(BKN) Broken
2900(SCT) Scattered
2000(FEW) A few
Past METAR reports
MVFR 01:53:00 25-03-17
Automated station
Altimeter:30.11 hg
Temp:27.8°c 81°f
Dew point:20.6°c 68°f
Wind:10 knots, 11.5 mph, 5 m/s, from 130°
Visibility:10.0 statute miles
5000(BKN) Broken
2900(BKN) Broken
2000(FEW) A few
PHNL 250153Z 13010KT 10SM FEW020 BKN029 BKN050 28/21 A3011 RMK AO2 RAE10 SLP194 P0000 T02780206
VFR 00:53:00 25-03-17
Automated station
Altimeter:30.11 hg
Temp:27.2°c 81°f
Dew point:21.1°c 70°f
Wind:11 knots, 12.7 mph, 6 m/s, from 140°
Visibility:10.0 statute miles
10000(BKN) Broken
4800(SCT) Scattered
2000(FEW) A few
PHNL 250053Z COR 14011KT 10SM -RA FEW020 SCT048 BKN100 27/21 A3011 RMK AO2 RAB34 SLP196 P0000 T02720211
VFR 23:53:00 24-03-17
Automated station
Altimeter:30.11 hg
Temp:28.9°c 82°f
Dew point:20.6°c 68°f
Wind:13 knots, 15 mph, 7 m/s, from 140°
Visibility:10.0 statute miles
10000(SCT) Scattered
4800(SCT) Scattered
2400(FEW) A few
PHNL 242353Z 14013KT 10SM FEW024 SCT048 SCT100 29/21 A3011 RMK AO2 SLP197 VCSH NW-N-E 60000 T02890206 10289 20244 56022
VFR 22:53:00 24-03-17
Automated station
Altimeter:30.13 hg
Temp:28.3°c 82°f
Dew point:21.1°c 70°f
Wind:13 knots, 15 mph, 7 m/s, from 130°
Visibility:10.0 statute miles
5000(BKN) Broken
3600(SCT) Scattered
2100(FEW) A few
PHNL 242253Z 13013KT 10SM FEW021 SCT036 BKN050 28/21 A3013 RMK AO2 RAE17 SLP202 VCSH NW-N-E P0000 T02830211
VFR 21:53:00 24-03-17
Automated station
Altimeter:30.16 hg
Temp:25.6°c 77°f
Dew point:21.1°c 70°f
Wind:6 knots, 6.9 mph, 3 m/s, from 50°
Visibility:7.0 statute miles
10000(BKN) Broken
3400(BKN) Broken
2400(SCT) Scattered
PHNL 242153Z 05006KT 7SM -RA SCT024 BKN034 BKN100 26/21 A3016 RMK AO2 RAB41 SLP213 P0000 T02560211
TAF
PHNL 250243Z 2503/2606 11011KT P6SM VCSH BKN030 FM250800 06006KT P6SM FEW025 SCT040 FM252000 07014G22KT P6SM FEW030 FEW045 FM260500 06009KT P6SM FEW025 FEW040
Forecast at PHNL
03:00 25-03-17 to 08:00 25-03-17
VCSH
Wind:11 Knots from 110°
Visibility:6.21 statute miles
3000BKN Broken
FM 08:00 25-03-17 to 20:00 25-03-17
Wind:6 Knots from 60°
Visibility:6.21 statute miles
2500FEW A few
4000SCT Scattered
FM 20:00 25-03-17 to 05:00 26-03-17
Wind:14 Knots from 70°
Visibility:6.21 statute miles
3000FEW A few
4500FEW A few
FM 05:00 26-03-17 to 06:00 26-03-17
Wind:9 Knots from 60°
Visibility:6.21 statute miles
2500FEW A few
4000FEW A few